Time;durP1;ratioP1;P1;durP2;ratioP2;P2;SDS_P1;SDS_P2;PMS_P1;PMS_P2;Temp;Humidity;BMP_temperature;BMP_pressure;BME280_temperature;BME280_humidity;BME280_pressure;Samples;Min_cycle;Max_cycle;Signal;HPM_P1;HPM_P2
2020/12/20 00:03:40;;;;;;;69.70;32.73;;;;;;;2.09;72.50;100078.31;249597;1134;115937;-65
2020/12/20 00:08:50;;;;;;;74.83;33.33;;;;;;;2.04;72.12;100070.50;249712;1134;115705;-68
2020/12/20 00:13:54;;;;;;;93.13;37.00;;;;;;;2.02;72.10;100069.64;249585;1133;115495;-64
2020/12/20 00:19:03;;;;;;;98.27;41.67;;;;;;;2.03;71.92;100071.37;249529;1134;116669;-64
2020/12/20 00:24:12;;;;;;;93.77;40.30;;;;;;;2.07;72.32;100064.33;249677;1134;115198;-67
2020/12/20 00:29:20;;;;;;;92.37;38.60;;;;;;;2.10;71.83;100078.28;249513;1135;115612;-68
2020/12/20 00:34:24;;;;;;;80.97;37.42;;;;;;;2.13;72.42;100077.39;249679;1133;115587;-67
2020/12/20 00:39:29;;;;;;;82.13;35.00;;;;;;;2.12;72.13;100073.03;249690;1134;115505;-66
2020/12/20 00:44:45;;;;;;;83.63;36.33;;;;;;;2.16;71.95;100073.88;249586;1134;116529;-67
2020/12/20 00:49:55;;;;;;;77.67;37.53;;;;;;;2.18;71.69;100079.98;249510;1134;116153;-66
2020/12/20 00:55:02;;;;;;;93.63;36.57;;;;;;;2.08;71.24;100073.96;249762;1134;116192;-67
2020/12/20 01:00:08;;;;;;;80.30;34.60;;;;;;;1.88;71.13;100068.91;249803;1134;119461;-66
2020/12/20 01:05:18;;;;;;;79.23;35.83;;;;;;;1.76;71.39;100069.02;249736;1134;115904;-66
2020/12/20 01:10:27;;;;;;;85.03;38.53;;;;;;;1.72;71.27;100068.19;249596;1134;116610;-68
2020/12/20 01:15:32;;;;;;;79.27;35.53;;;;;;;1.77;71.83;100062.91;249563;1134;115213;-67
2020/12/20 01:20:39;;;;;;;77.93;36.37;;;;;;;1.78;71.79;100068.13;249504;1134;115897;-69
2020/12/20 01:26:14;;;;;;;87.45;38.65;;;;;;;1.82;71.42;100069.84;249551;1134;115970;-67
2020/12/20 01:31:22;;;;;;;87.43;39.53;;;;;;;1.76;71.19;100064.64;249747;1134;115261;-68
2020/12/20 01:36:44;;;;;;;85.28;39.88;;;;;;;1.73;71.00;100053.31;249498;1133;115640;-66
2020/12/20 01:41:53;;;;;;;110.93;46.67;;;;;;;1.65;71.66;100046.38;249746;1134;115547;-66
2020/12/20 01:47:13;;;;;;;110.80;46.90;;;;;;;1.65;71.69;100046.38;249554;1133;115950;-65
2020/12/20 01:52:44;;;;;;;113.17;47.20;;;;;;;1.62;71.14;100048.17;249742;1134;115209;-63
2020/12/20 01:58:04;;;;;;;116.88;49.27;;;;;;;1.59;71.66;100043.81;249508;1134;115017;-66
2020/12/20 02:03:25;;;;;;;119.77;51.27;;;;;;;1.65;71.66;100046.38;249605;1134;114995;-65
2020/12/20 02:08:37;;;;;;;114.80;50.37;;;;;;;1.63;71.85;100047.27;249924;1133;115643;-65
2020/12/20 02:13:51;;;;;;;113.27;49.13;;;;;;;1.57;71.81;100040.36;249641;1134;115689;-67
2020/12/20 02:19:00;;;;;;;105.75;45.43;;;;;;;1.49;71.34;100036.05;250858;1134;115204;-63
2020/12/20 02:24:03;;;;;;;115.40;46.47;;;;;;;1.43;71.64;100036.99;251744;1134;116501;-66
2020/12/20 02:29:11;;;;;;;95.00;40.78;;;;;;;1.38;71.06;100038.77;251773;1135;115502;-65
2020/12/20 02:34:14;;;;;;;87.40;40.47;;;;;;;1.36;71.42;100032.69;251842;1137;116044;-66
2020/12/20 02:39:19;;;;;;;81.93;37.47;;;;;;;1.42;71.38;100033.47;251877;1134;115247;-63
2020/12/20 02:44:33;;;;;;;77.27;35.10;;;;;;;1.40;71.15;100035.26;251817;1137;115534;-63
2020/12/20 02:49:38;;;;;;;80.25;36.20;;;;;;;1.37;71.16;100037.04;251563;1135;115272;-65
2020/12/20 02:54:49;;;;;;;67.82;33.33;;;;;;;1.30;70.80;100040.60;251665;1133;115252;-66
2020/12/20 03:00:01;;;;;;;71.10;33.00;;;;;;;1.28;71.25;100052.84;251823;1135;115362;-64
2020/12/20 03:05:05;;;;;;;60.85;30.20;;;;;;;1.23;71.15;100037.16;251944;1134;115330;-64
2020/12/20 03:10:07;;;;;;;65.03;33.57;;;;;;;1.21;70.94;100044.16;251731;1134;116906;-65
2020/12/20 03:15:11;;;;;;;66.37;33.57;;;;;;;1.23;70.87;100034.54;251657;1135;115328;-66
2020/12/20 03:20:15;;;;;;;71.92;35.28;;;;;;;1.22;70.92;100034.53;251854;1134;115267;-64
2020/12/20 03:25:20;;;;;;;67.20;34.10;;;;;;;1.22;71.35;100035.39;251707;1134;115292;-65
2020/12/20 03:30:51;;;;;;;72.00;36.33;;;;;;;1.20;70.88;100037.18;251840;1135;116794;-66
2020/12/20 03:36:21;;;;;;;74.17;36.87;;;;;;;1.16;70.90;100038.95;251895;1142;116987;-64
2020/12/20 03:41:24;;;;;;;70.03;34.03;;;;;;;1.12;70.74;100037.25;251705;1133;116294;-64
2020/12/20 03:46:27;;;;;;;65.00;31.15;;;;;;;1.10;71.21;100032.89;251936;1135;116731;-64
2020/12/20 03:51:30;;;;;;;71.07;29.57;;;;;;;1.10;70.41;100035.52;251730;1135;115256;-63
2020/12/20 03:56:34;;;;;;;63.38;28.35;;;;;;;1.03;70.17;100039.92;251657;1133;116075;-63
2020/12/20 04:01:50;;;;;;;59.23;28.37;;;;;;;0.99;71.10;100037.35;251871;1135;115846;-66
2020/12/20 04:06:52;;;;;;;61.27;30.33;;;;;;;0.99;70.99;100053.08;251733;1135;115080;-63
2020/12/20 04:11:56;;;;;;;63.90;31.62;;;;;;;0.96;71.12;100056.58;251919;1134;117117;-63
2020/12/20 04:17:00;;;;;;;49.60;24.82;;;;;;;0.98;71.05;100053.94;251713;1135;116291;-63
2020/12/20 04:22:03;;;;;;;70.33;34.03;;;;;;;0.93;70.93;100059.22;251684;1134;116234;-64
2020/12/20 04:27:40;;;;;;;69.57;34.57;;;;;;;0.89;70.65;100057.50;251738;1135;115382;-65
2020/12/20 04:32:42;;;;;;;77.20;35.05;;;;;;;0.84;70.30;100048.78;251659;1143;114778;-64
2020/12/20 04:37:45;;;;;;;77.58;37.15;;;;;;;0.88;70.72;100045.26;251776;1134;115672;-64
2020/12/20 04:43:03;;;;;;;71.60;34.57;;;;;;;0.88;70.62;100040.91;251682;1134;116149;-65
2020/12/20 04:48:06;;;;;;;82.07;38.50;;;;;;;0.87;71.04;100047.02;251723;1135;118064;-63
2020/12/20 04:53:17;;;;;;;78.80;38.07;;;;;;;0.89;71.24;100040.02;251697;1134;114974;-67
2020/12/20 04:58:28;;;;;;;79.10;38.80;;;;;;;0.89;70.53;100037.41;251694;1134;117239;-63
2020/12/20 05:03:33;;;;;;;;;;;;;;;0.82;70.78;100046.19;251698;1135;115256;-66
2020/12/20 05:08:36;;;;;;;90.60;39.43;;;;;;;0.73;70.73;100045.38;251908;1134;102373;-66
2020/12/20 05:13:41;;;;;;;77.67;37.67;;;;;;;0.75;70.94;100048.83;251650;1134;115579;-65
2020/12/20 05:18:51;;;;;;;83.53;37.60;;;;;;;0.77;70.33;100044.47;251615;1137;116424;-67
2020/12/20 05:23:54;;;;;;;83.43;38.87;;;;;;;0.73;70.39;100043.62;251711;1135;116399;-66
2020/12/20 05:29:15;;;;;;;84.80;38.98;;;;;;;0.77;70.69;100054.95;251847;1134;115646;-67
2020/12/20 05:34:22;;;;;;;80.00;39.17;;;;;;;0.81;71.17;100049.66;251690;1134;116167;-65
2020/12/20 05:39:25;;;;;;;86.50;39.23;;;;;;;0.82;70.39;100055.80;251747;1134;115400;-64
2020/12/20 05:44:39;;;;;;;76.53;37.50;;;;;;;0.83;70.42;100062.77;251811;1135;115464;-65
2020/12/20 05:49:46;;;;;;;76.40;35.70;;;;;;;0.86;70.84;100057.52;251720;1134;114978;-65
2020/12/20 05:55:12;;;;;;;86.75;38.13;;;;;;;0.88;70.78;100063.60;251732;1133;115108;-66
2020/12/20 06:00:14;;;;;;;79.50;37.57;;;;;;;0.83;70.20;100063.64;251783;1135;114747;-63
2020/12/20 06:05:17;;;;;;;79.90;38.15;;;;;;;0.83;70.34;100060.16;251979;1134;115160;-65
2020/12/20 06:10:23;;;;;;;77.17;36.77;;;;;;;0.82;70.29;100069.77;251842;1133;116128;-65
2020/12/20 06:15:31;;;;;;;83.63;36.77;;;;;;;0.78;70.84;100075.91;251682;1134;115460;-66
2020/12/20 06:20:47;;;;;;;80.95;37.78;;;;;;;0.77;71.05;100074.15;251822;1134;115227;-64
2020/12/20 06:25:50;;;;;;;85.30;37.80;;;;;;;0.81;70.44;100082.86;251891;1139;116260;-64
2020/12/20 06:31:00;;;;;;;79.07;36.20;;;;;;;0.82;70.94;100084.63;251563;1140;117138;-68
2020/12/20 06:36:08;;;;;;;76.00;34.17;;;;;;;0.84;70.52;100085.47;251784;1135;116359;-66
2020/12/20 06:41:10;;;;;;;71.57;33.33;;;;;;;0.86;71.26;100081.10;251739;1133;115279;-64
2020/12/20 06:46:38;;;;;;;70.52;33.05;;;;;;;0.87;71.17;100081.08;251704;1135;115503;-65
2020/12/20 06:51:41;;;;;;;70.13;33.10;;;;;;;0.90;71.12;100088.05;252101;1136;115028;-65
2020/12/20 06:56:43;;;;;;;68.53;32.40;;;;;;;0.92;70.61;100086.31;252061;1134;115655;-67
2020/12/20 07:01:45;;;;;;;69.07;33.17;;;;;;;0.91;70.25;100089.79;251982;1134;115330;-66
2020/12/20 07:07:11;;;;;;;76.03;32.60;;;;;;;0.92;70.81;100097.66;251964;1135;115274;-63
2020/12/20 07:12:43;;;;;;;69.85;34.45;;;;;;;0.97;70.74;100099.38;251962;1134;115160;-65
2020/12/20 07:17:45;;;;;;;68.80;32.83;;;;;;;1.00;70.50;100100.22;252049;1135;115938;-66
2020/12/20 07:22:50;;;;;;;74.23;33.80;;;;;;;1.01;71.04;100109.82;252045;1133;117202;-63
2020/12/20 07:27:52;;;;;;;67.10;31.97;;;;;;;1.02;71.12;100110.69;252064;1135;115442;-66
2020/12/20 07:32:54;;;;;;;68.73;33.53;;;;;;;1.02;71.02;100116.83;252024;1138;115365;-65
2020/12/20 07:37:57;;;;;;;65.37;32.23;;;;;;;1.04;70.95;100119.42;251829;1133;115082;-64
2020/12/20 07:43:00;;;;;;;62.33;30.80;;;;;;;1.01;70.28;100120.30;251948;1136;116023;-64
2020/12/20 07:48:03;;;;;;;64.93;30.57;;;;;;;0.96;70.62;100111.61;251909;1135;115366;-66
2020/12/20 07:53:05;;;;;;;66.23;31.87;;;;;;;0.96;70.39;100111.61;251997;1133;115274;-66
2020/12/20 07:58:08;;;;;;;65.83;33.23;;;;;;;0.99;70.83;100111.59;251903;1133;115168;-67
2020/12/20 08:03:13;;;;;;;68.30;31.93;;;;;;;1.05;70.63;100110.67;252003;1135;116149;-66
2020/12/20 08:08:21;;;;;;;68.47;32.40;;;;;;;1.03;70.59;100121.17;252013;1138;115770;-65
2020/12/20 08:13:24;;;;;;;71.33;31.60;;;;;;;1.04;70.90;100124.66;251856;1133;115087;-66
2020/12/20 08:18:29;;;;;;;71.07;33.10;;;;;;;1.06;70.22;100118.54;251724;1135;115054;-65
2020/12/20 08:23:32;;;;;;;72.80;33.33;;;;;;;1.07;71.06;100115.03;251987;1143;115130;-65
2020/12/20 08:28:35;;;;;;;67.00;31.52;;;;;;;1.09;70.89;100128.14;251909;1134;115440;-63
2020/12/20 08:33:38;;;;;;;61.27;31.70;;;;;;;1.13;70.61;100130.73;251916;1134;115141;-64
2020/12/20 08:38:40;;;;;;;64.03;31.17;;;;;;;1.07;70.49;100133.38;251914;1134;115487;-65
2020/12/20 08:43:42;;;;;;;68.80;32.23;;;;;;;1.05;70.77;100129.88;251867;1133;115605;-64
2020/12/20 08:48:45;;;;;;;65.87;30.10;;;;;;;1.07;70.26;100129.89;252016;1140;115245;-63
2020/12/20 08:53:47;;;;;;;70.55;32.28;;;;;;;1.13;71.05;100125.48;251930;1134;115068;-65
2020/12/20 08:58:49;;;;;;;67.33;32.83;;;;;;;1.15;70.98;100117.59;252063;1136;115964;-63
2020/12/20 09:03:53;;;;;;;69.20;33.00;;;;;;;1.22;71.15;100123.67;251919;1133;115534;-64
2020/12/20 09:08:56;;;;;;;64.15;30.77;;;;;;;1.29;71.18;100114.87;251967;1134;115115;-63
2020/12/20 09:14:08;;;;;;;58.00;29.27;;;;;;;1.30;70.39;100116.64;251684;1135;114944;-63
2020/12/20 09:19:13;;;;;;;63.73;30.02;;;;;;;1.32;70.52;100120.97;251900;1135;114691;-67
2020/12/20 09:24:16;;;;;;;58.80;28.67;;;;;;;1.35;70.78;100120.08;251889;1134;115153;-64
2020/12/20 09:29:18;;;;;;;61.03;29.53;;;;;;;1.36;70.48;100117.47;251876;1132;115814;-64
2020/12/20 09:34:32;;;;;;;64.80;32.00;;;;;;;1.53;70.97;100124.31;251701;1135;115238;-64
2020/12/20 09:39:53;;;;;;;78.77;36.60;;;;;;;1.56;70.67;100122.56;251886;1138;115120;-63
2020/12/20 09:44:56;;;;;;;76.28;34.75;;;;;;;1.58;70.15;100110.29;251896;1137;115217;-64
2020/12/20 09:49:58;;;;;;;78.70;36.73;;;;;;;1.57;70.68;100115.56;251715;1136;115138;-62
2020/12/20 09:55:00;;;;;;;71.07;35.37;;;;;;;1.56;70.82;100109.45;251775;1135;114865;-64
2020/12/20 10:00:03;;;;;;;78.13;34.07;;;;;;;1.56;70.63;100113.80;251849;1133;115359;-62
2020/12/20 10:05:13;;;;;;;58.40;30.87;;;;;;;1.59;70.41;100106.77;251758;1134;115491;-65
2020/12/20 10:10:16;;;;;;;62.25;32.00;;;;;;;1.60;70.59;100103.29;251747;1141;119075;-62
2020/12/20 10:15:18;;;;;;;59.07;30.10;;;;;;;1.57;70.42;100100.69;251792;1135;115322;-67
2020/12/20 10:20:21;;;;;;;57.17;29.27;;;;;;;1.57;71.03;100099.83;251841;1135;115481;-64
2020/12/20 10:25:23;;;;;;;63.67;30.10;;;;;;;1.54;70.52;100098.09;251662;1135;115413;-64
2020/12/20 10:30:26;;;;;;;66.63;31.90;;;;;;;1.53;70.92;100079.72;251903;1139;115487;-65
2020/12/20 10:35:28;;;;;;;63.33;30.20;;;;;;;1.51;70.65;100076.27;251852;1133;115013;-68
2020/12/20 10:40:30;;;;;;;59.97;31.23;;;;;;;1.52;70.94;100075.37;251774;1133;115236;-64
2020/12/20 10:45:33;;;;;;;62.53;31.50;;;;;;;1.56;71.20;100075.34;251706;1135;114736;-65
2020/12/20 10:50:35;;;;;;;64.57;29.97;;;;;;;1.62;70.65;100085.77;252018;1135;115479;-66
2020/12/20 10:55:37;;;;;;;72.87;34.17;;;;;;;1.64;70.24;100083.14;251958;1134;115234;-64
2020/12/20 11:00:40;;;;;;;65.42;32.98;;;;;;;1.68;71.11;100083.98;251911;1139;115491;-66
2020/12/20 11:05:42;;;;;;;77.80;35.87;;;;;;;1.75;70.71;100080.42;251763;1133;115316;-66
2020/12/20 11:10:44;;;;;;;63.20;31.57;;;;;;;1.78;70.49;100077.77;251936;1134;115010;-66
2020/12/20 11:15:47;;;;;;;63.03;30.77;;;;;;;1.77;70.73;100081.28;251757;1135;116062;-65
2020/12/20 11:20:49;;;;;;;63.77;31.40;;;;;;;1.79;70.78;100074.25;251937;1135;114971;-65
2020/12/20 11:25:51;;;;;;;69.35;33.83;;;;;;;1.80;70.92;100086.47;251883;1135;115014;-65
2020/12/20 11:30:54;;;;;;;67.82;32.10;;;;;;;1.77;70.95;100082.15;251740;1133;115423;-65
2020/12/20 11:35:56;;;;;;;65.70;31.97;;;;;;;1.75;70.41;100085.66;251915;1135;114658;-65
2020/12/20 11:41:02;;;;;;;64.23;33.13;;;;;;;1.77;70.66;100091.78;252029;1134;115341;-65
2020/12/20 11:46:05;;;;;;;71.37;35.93;;;;;;;1.78;70.55;100098.76;251808;1133;115382;-63
2020/12/20 11:51:10;;;;;;;70.72;33.65;;;;;;;1.78;70.53;100094.37;252036;1135;115044;-66
2020/12/20 11:56:14;;;;;;;55.97;30.20;;;;;;;1.81;70.69;100093.48;251736;1134;115203;-64
2020/12/20 12:01:24;;;;;;;59.87;30.57;;;;;;;1.80;70.65;100099.59;252011;1136;115671;-65
2020/12/20 12:06:27;;;;;;;62.80;31.17;;;;;;;1.81;70.68;100096.11;251678;1134;116285;-66
2020/12/20 12:11:29;;;;;;;66.93;32.73;;;;;;;1.83;70.24;100086.45;251811;1134;115654;-64
2020/12/20 12:16:42;;;;;;;74.35;34.40;;;;;;;1.78;70.46;100081.25;251772;1134;115134;-65
2020/12/20 12:21:47;;;;;;;72.57;33.73;;;;;;;1.80;70.62;100083.84;251829;1134;116091;-65
2020/12/20 12:26:49;;;;;;;76.10;37.83;;;;;;;1.81;70.76;100085.61;251809;1135;115081;-66
2020/12/20 12:31:52;;;;;;;66.37;32.10;;;;;;;1.87;70.72;100080.31;251703;1135;115442;-66
2020/12/20 12:36:54;;;;;;;73.27;34.97;;;;;;;1.90;70.75;100077.63;251598;1133;115322;-67
2020/12/20 12:41:56;;;;;;;65.62;34.53;;;;;;;1.92;70.59;100075.00;251805;1134;116237;-65
2020/12/20 12:46:59;;;;;;;76.87;34.40;;;;;;;1.93;71.02;100074.97;251922;1133;115040;-66
2020/12/20 12:52:03;;;;;;;80.62;37.93;;;;;;;1.95;70.89;100072.34;252011;1135;116899;-66
2020/12/20 12:57:06;;;;;;;86.33;38.83;;;;;;;1.94;70.70;100076.73;251049;1135;115245;-65
2020/12/20 13:02:08;;;;;;;77.50;36.40;;;;;;;1.94;70.81;100083.71;251818;1135;116120;-66
2020/12/20 13:07:11;;;;;;;80.65;37.85;;;;;;;1.94;70.73;100079.36;252010;1134;116686;-65
2020/12/20 13:12:14;;;;;;;68.43;35.13;;;;;;;1.96;70.75;100074.94;251797;1135;115145;-66
2020/12/20 13:17:17;;;;;;;63.80;32.23;;;;;;;1.98;70.68;100083.69;251845;1134;115245;-66
2020/12/20 13:22:20;;;;;;;66.07;32.40;;;;;;;1.95;70.69;100090.72;251760;1135;115651;-64
2020/12/20 13:27:22;;;;;;;71.47;34.33;;;;;;;1.93;70.61;100088.09;251692;1134;114826;-66
2020/12/20 13:32:24;;;;;;;69.33;35.03;;;;;;;1.92;70.69;100088.13;251846;1138;115272;-66
2020/12/20 13:37:27;;;;;;;79.97;36.17;;;;;;;1.89;70.63;100081.14;251714;1134;114845;-68
2020/12/20 13:42:30;;;;;;;77.60;37.50;;;;;;;1.86;71.00;100079.41;251733;1134;116374;-65
2020/12/20 13:47:33;;;;;;;86.07;38.93;;;;;;;1.90;70.72;100067.13;251812;1133;115119;-64
2020/12/20 13:52:35;;;;;;;72.50;36.07;;;;;;;1.94;71.25;100071.48;251817;1135;114648;-65
2020/12/20 13:57:37;;;;;;;73.35;34.73;;;;;;;1.95;70.80;100065.34;251930;1134;116471;-65
2020/12/20 14:02:40;;;;;;;68.90;32.97;;;;;;;1.95;70.80;100074.97;251950;1142;115033;-66
2020/12/20 14:07:43;;;;;;;65.90;32.53;;;;;;;1.91;70.99;100070.65;251978;1135;114711;-66
2020/12/20 14:12:45;;;;;;;68.90;33.27;;;;;;;1.91;70.78;100074.14;251919;1135;115178;-65
2020/12/20 14:17:48;;;;;;;71.37;34.70;;;;;;;1.92;71.23;100069.75;251718;1135;115590;-65
2020/12/20 14:22:50;;;;;;;68.33;33.33;;;;;;;1.92;70.92;100075.87;251398;1135;115743;-62
2020/12/20 14:27:52;;;;;;;71.27;33.17;;;;;;;1.89;70.76;100070.64;251927;1135;115536;-66
2020/12/20 14:32:54;;;;;;;81.30;34.70;;;;;;;1.88;70.55;100066.29;251950;1136;115698;-66
2020/12/20 14:37:59;;;;;;;70.63;33.23;;;;;;;1.89;70.46;100075.89;251869;1135;114855;-65
2020/12/20 14:43:02;;;;;;;64.07;33.05;;;;;;;1.89;70.92;100087.26;252028;1135;115572;-64
2020/12/20 14:48:05;;;;;;;71.82;33.33;;;;;;;1.87;70.96;100082.94;251796;1135;115334;-64
2020/12/20 14:53:07;;;;;;;63.07;30.97;;;;;;;1.88;70.83;100080.28;252032;1135;115137;-65
2020/12/20 14:58:09;;;;;;;64.57;31.97;;;;;;;1.81;70.67;100081.23;252081;1135;114698;-62
2020/12/20 15:03:12;;;;;;;82.50;37.05;;;;;;;1.81;71.08;100080.36;251853;1135;115242;-64
2020/12/20 15:08:14;;;;;;;65.73;32.70;;;;;;;1.80;70.72;100078.59;251759;1135;115441;-64
2020/12/20 15:13:17;;;;;;;78.28;35.92;;;;;;;1.78;70.76;100077.77;251847;1135;115364;-66
2020/12/20 15:18:21;;;;;;;79.53;36.57;;;;;;;1.76;70.79;100079.52;251985;1134;115151;-65
2020/12/20 15:23:24;;;;;;;79.60;36.13;;;;;;;1.71;70.55;100082.20;251902;1135;115057;-65
2020/12/20 15:28:26;;;;;;;77.57;36.53;;;;;;;1.69;70.93;100083.09;251951;1134;114748;-63
2020/12/20 15:33:29;;;;;;;82.67;38.27;;;;;;;1.70;71.26;100084.82;251709;1135;115069;-64
2020/12/20 15:38:49;;;;;;;68.30;33.67;;;;;;;1.71;70.17;100076.09;251863;1135;115259;-63
2020/12/20 15:43:51;;;;;;;71.50;33.00;;;;;;;1.70;70.66;100076.95;250996;1137;115139;-62
2020/12/20 15:48:53;;;;;;;69.43;32.57;;;;;;;1.67;71.28;100074.38;252019;1135;115108;-65
2020/12/20 15:53:56;;;;;;;65.83;31.80;;;;;;;1.61;70.92;100078.78;251892;1133;117118;-63
2020/12/20 15:58:58;;;;;;;69.60;33.07;;;;;;;1.61;70.92;100073.54;251974;1135;114832;-62
2020/12/20 16:04:00;;;;;;;66.12;33.90;;;;;;;1.62;70.98;100071.78;251902;1133;115878;-62
2020/12/20 16:09:03;;;;;;;68.60;32.73;;;;;;;1.61;70.61;100070.05;251837;1135;115660;-62
2020/12/20 16:14:05;;;;;;;70.03;34.23;;;;;;;1.63;71.10;100084.00;251767;1142;116796;-62
2020/12/20 16:19:08;;;;;;;68.37;32.90;;;;;;;1.65;70.97;100069.13;252072;1142;114912;-63
2020/12/20 16:24:12;;;;;;;61.60;31.83;;;;;;;1.68;71.46;100057.75;251773;1135;115667;-63
2020/12/20 16:29:15;;;;;;;68.02;31.15;;;;;;;1.68;70.79;100050.73;251883;1135;115824;-62
2020/12/20 16:34:18;;;;;;;65.10;31.00;;;;;;;1.65;71.26;100059.50;251641;1135;114877;-64
2020/12/20 16:39:21;;;;;;;63.23;32.63;;;;;;;1.63;71.02;100052.52;251962;1134;114860;-63
2020/12/20 16:44:45;;;;;;;66.50;32.83;;;;;;;1.59;71.00;100043.81;251897;1134;115410;-65
2020/12/20 16:49:47;;;;;;;64.65;32.95;;;;;;;1.62;71.03;100046.41;251745;1135;115756;-62
2020/12/20 16:54:49;;;;;;;67.65;32.98;;;;;;;1.68;71.18;100050.73;251776;1135;115231;-66
2020/12/20 16:59:52;;;;;;;68.37;32.97;;;;;;;1.69;70.79;100059.48;250262;1134;114988;-66
2020/12/20 17:05:14;;;;;;;64.90;31.90;;;;;;;1.68;70.56;100068.24;249453;1134;115065;-64
2020/12/20 17:10:22;;;;;;;65.33;32.17;;;;;;;1.65;70.91;100067.37;251125;1134;115116;-66
2020/12/20 17:15:29;;;;;;;63.07;29.87;;;;;;;1.63;70.76;100070.89;251901;1134;115374;-65
2020/12/20 17:20:37;;;;;;;70.47;32.28;;;;;;;1.63;70.80;100065.64;251812;1135;115424;-64
2020/12/20 17:25:44;;;;;;;70.43;33.90;;;;;;;1.60;70.81;100056.06;252119;1135;115493;-66
2020/12/20 17:30:52;;;;;;;61.93;31.13;;;;;;;1.65;71.17;100051.63;252082;1134;115269;-65
2020/12/20 17:35:59;;;;;;;64.90;31.85;;;;;;;1.67;71.42;100059.50;252004;1133;115242;-66
2020/12/20 17:41:07;;;;;;;62.00;31.90;;;;;;;1.68;71.17;100061.23;251577;1135;114933;-65
2020/12/20 17:46:15;;;;;;;69.43;33.43;;;;;;;1.62;71.00;100056.91;251648;1134;115053;-65
2020/12/20 17:51:22;;;;;;;69.00;33.20;;;;;;;1.63;70.91;100056.05;251819;1135;115021;-66
2020/12/20 17:56:27;;;;;;;72.93;34.43;;;;;;;1.63;71.23;100049.90;252013;1133;114958;-66
2020/12/20 18:01:33;;;;;;;69.03;35.10;;;;;;;1.60;71.63;100052.58;251879;1135;115331;-66
2020/12/20 18:06:35;;;;;;;69.27;33.57;;;;;;;1.62;71.01;100056.04;251883;1134;114716;-67
2020/12/20 18:11:37;;;;;;;68.05;34.35;;;;;;;1.65;70.98;100061.26;251922;1135;115296;-67
2020/12/20 18:16:43;;;;;;;67.30;34.50;;;;;;;1.66;71.01;100057.74;251913;1135;116034;-67
2020/12/20 18:21:45;;;;;;;67.17;34.27;;;;;;;1.70;71.23;100055.95;251950;1134;115179;-67
2020/12/20 18:26:48;;;;;;;67.33;33.20;;;;;;;1.72;71.35;100056.83;251841;1134;115186;-67
2020/12/20 18:31:50;;;;;;;71.10;35.67;;;;;;;1.69;71.19;100056.85;251672;1134;115142;-66
2020/12/20 18:36:52;;;;;;;69.20;34.63;;;;;;;1.68;71.22;100057.75;251826;1135;115106;-68
2020/12/20 18:41:55;;;;;;;84.47;38.27;;;;;;;1.69;71.07;100057.72;251737;1135;115576;-70
2020/12/20 18:46:57;;;;;;;71.63;36.77;;;;;;;1.74;71.26;100055.94;251867;1142;114970;-69
2020/12/20 18:52:00;;;;;;;79.13;38.27;;;;;;;1.79;71.44;100059.37;251809;1135;115552;-65
2020/12/20 18:57:02;;;;;;;75.67;36.53;;;;;;;1.81;71.19;100046.25;251834;1134;115251;-64
2020/12/20 19:02:05;;;;;;;76.47;38.30;;;;;;;1.78;71.20;100051.52;252131;1135;115323;-66
2020/12/20 19:07:08;;;;;;;85.28;39.25;;;;;;;1.74;71.01;100049.82;252082;1134;115631;-64
2020/12/20 19:12:10;;;;;;;75.90;37.13;;;;;;;1.73;71.36;100059.42;251995;1135;115357;-66
2020/12/20 19:17:13;;;;;;;86.07;39.23;;;;;;;1.68;71.20;100055.13;251867;1133;115396;-65
2020/12/20 19:22:15;;;;;;;80.53;39.53;;;;;;;1.63;71.24;100058.67;251692;1134;115093;-65
2020/12/20 19:27:17;;;;;;;85.72;38.67;;;;;;;1.68;71.60;100057.75;251723;1134;115500;-65
2020/12/20 19:32:20;;;;;;;83.50;38.87;;;;;;;1.72;71.94;100068.19;250608;1136;115662;-64
2020/12/20 19:37:23;;;;;;;74.75;36.93;;;;;;;1.72;71.37;100062.94;251912;1133;115273;-66
2020/12/20 19:42:26;;;;;;;83.20;40.40;;;;;;;1.71;71.37;100062.97;251477;1134;115503;-66
2020/12/20 19:47:35;;;;;;;84.90;41.37;;;;;;;1.65;71.24;100066.51;249451;1135;115682;-65
2020/12/20 19:52:37;;;;;;;90.28;40.40;;;;;;;1.65;72.07;100072.62;251796;1134;114820;-65
2020/12/20 19:57:40;;;;;;;86.33;40.87;;;;;;;1.69;71.67;100064.72;251679;1134;115240;-65
2020/12/20 20:02:42;;;;;;;77.63;38.37;;;;;;;1.77;71.57;100070.79;251817;1135;115159;-65
2020/12/20 20:07:44;;;;;;;82.93;39.50;;;;;;;1.79;71.25;100061.13;251398;1134;115617;-68
2020/12/20 20:12:49;;;;;;;84.47;37.80;;;;;;;1.79;71.94;100069.00;251987;1133;115652;-65
2020/12/20 20:17:51;;;;;;;79.85;39.48;;;;;;;1.80;71.75;100066.38;251868;1134;115362;-65
2020/12/20 20:22:53;;;;;;;77.83;37.73;;;;;;;1.82;71.64;100068.97;251698;1135;115751;-66
2020/12/20 20:27:55;;;;;;;84.70;39.17;;;;;;;1.80;71.78;100071.63;251748;1135;115012;-68
2020/12/20 20:32:58;;;;;;;85.73;40.63;;;;;;;1.83;71.10;100071.56;251926;1133;115250;-66
2020/12/20 20:38:00;;;;;;;87.47;40.27;;;;;;;1.89;71.44;100066.27;251721;1133;115697;-65
2020/12/20 20:43:03;;;;;;;77.50;38.92;;;;;;;1.84;71.42;100072.46;251882;1136;115188;-65
2020/12/20 20:48:05;;;;;;;81.77;39.17;;;;;;;1.83;71.52;100066.31;251827;1134;115920;-66
2020/12/20 20:53:11;;;;;;;82.43;39.07;;;;;;;1.81;71.73;100078.60;251814;1133;115541;-64
2020/12/20 20:58:13;;;;;;;86.83;39.63;;;;;;;1.77;71.33;100071.66;251788;1135;114919;-66
2020/12/20 21:03:16;;;;;;;86.70;40.53;;;;;;;1.83;72.14;100068.94;251946;1135;115305;-63
2020/12/20 21:08:18;;;;;;;84.93;39.90;;;;;;;1.88;71.06;100074.16;251736;1134;115525;-64
2020/12/20 21:13:21;;;;;;;95.90;38.20;;;;;;;1.86;71.42;100075.92;251905;1134;115579;-65
2020/12/20 21:18:24;;;;;;;87.37;39.40;;;;;;;1.84;71.51;100075.95;251684;1134;115354;-66
2020/12/20 21:23:26;;;;;;;88.60;37.97;;;;;;;1.80;71.35;100081.22;251869;1133;115305;-66
2020/12/20 21:28:28;;;;;;;92.57;39.73;;;;;;;1.77;71.30;100083.91;251790;1133;115547;-65
2020/12/20 21:33:31;;;;;;;81.47;39.67;;;;;;;1.69;71.10;100088.34;251872;1135;115289;-64
2020/12/20 21:38:35;;;;;;;97.97;41.73;;;;;;;1.67;71.75;100095.38;251657;1135;115357;-65
2020/12/20 21:43:38;;;;;;;87.75;39.83;;;;;;;1.71;71.53;100091.83;251961;1134;115669;-66
2020/12/20 21:48:40;;;;;;;89.70;40.97;;;;;;;1.72;71.47;100099.67;251898;1142;115209;-68
2020/12/20 21:53:42;;;;;;;83.17;37.77;;;;;;;1.74;71.16;100095.30;251779;1134;115428;-67
2020/12/20 21:58:45;;;;;;;77.40;37.23;;;;;;;1.69;71.60;100093.58;251722;1134;115437;-65
2020/12/20 22:03:47;;;;;;;83.80;38.87;;;;;;;1.65;71.17;100095.37;251984;1138;115291;-63
2020/12/20 22:08:50;;;;;;;91.33;42.80;;;;;;;1.66;71.47;100094.47;251814;1133;115494;-64
2020/12/20 22:13:52;;;;;;;90.40;40.50;;;;;;;1.68;71.20;100089.23;251776;1134;116102;-66
2020/12/20 22:18:55;;;;;;;88.47;41.50;;;;;;;1.70;71.43;100083.09;251613;1135;115147;-65
2020/12/20 22:23:57;;;;;;;81.87;39.23;;;;;;;1.73;71.96;100080.41;251853;1135;114975;-65
2020/12/20 22:28:59;;;;;;;92.27;41.27;;;;;;;1.74;71.25;100084.80;251757;1134;116498;-65
2020/12/20 22:34:01;;;;;;;94.70;40.87;;;;;;;1.74;71.44;100081.31;251884;1137;115338;-64
2020/12/20 22:39:04;;;;;;;95.43;41.60;;;;;;;1.76;71.82;100082.14;251519;1135;115783;-64
2020/12/20 22:44:06;;;;;;;88.73;40.47;;;;;;;1.83;71.72;100079.44;251650;1134;116033;-63
2020/12/20 22:49:08;;;;;;;89.92;40.17;;;;;;;1.82;71.38;100085.58;251744;1134;114984;-66
2020/12/20 22:54:11;;;;;;;89.43;39.60;;;;;;;1.75;70.84;100083.04;251706;1133;115410;-63